createdAt,value
2024-04-30T00:01:58.013Z,16.73
2024-04-30T00:04:26.226Z,16.70
2024-04-30T00:06:55.078Z,16.65
2024-04-30T00:09:22.641Z,16.59
2024-04-30T00:11:50.267Z,16.54
2024-04-30T00:14:17.837Z,16.48
2024-04-30T00:16:45.508Z,16.41
2024-04-30T00:19:13.253Z,16.34
2024-04-30T00:21:42.905Z,16.29
2024-04-30T00:24:10.892Z,16.19
2024-04-30T00:26:38.665Z,16.10
2024-04-30T00:29:06.196Z,16.04
2024-04-30T00:31:33.799Z,16.03
2024-04-30T00:34:01.521Z,16.01
2024-04-30T00:36:29.141Z,15.98
2024-04-30T00:38:56.792Z,15.95
2024-04-30T00:41:24.370Z,15.94
2024-04-30T00:43:51.927Z,15.93
2024-04-30T00:46:19.639Z,15.92
2024-04-30T00:48:47.199Z,15.91
2024-04-30T00:51:14.832Z,15.87
2024-04-30T00:53:42.788Z,15.84
2024-04-30T00:56:10.438Z,15.78
2024-04-30T00:58:38.115Z,15.70
2024-04-30T01:01:05.971Z,15.62
2024-04-30T01:03:33.991Z,15.54
2024-04-30T01:06:02.358Z,15.50
2024-04-30T01:08:29.852Z,15.50
2024-04-30T01:10:57.406Z,15.52
2024-04-30T01:13:28.398Z,15.53
2024-04-30T01:15:56.065Z,15.54
2024-04-30T01:18:23.701Z,15.54
2024-04-30T01:20:51.272Z,15.53
2024-04-30T01:23:18.880Z,15.52
2024-04-30T01:25:46.591Z,15.50
2024-04-30T01:28:14.369Z,15.46
2024-04-30T01:33:29.722Z,15.42
2024-04-30T01:35:58.171Z,15.39
2024-04-30T01:38:26.269Z,15.37
2024-04-30T01:40:53.912Z,15.34
2024-04-30T01:43:21.622Z,15.31
2024-04-30T01:45:49.302Z,15.29
2024-04-30T01:48:17.007Z,15.27
2024-04-30T01:50:44.641Z,15.26
2024-04-30T01:53:12.207Z,15.23
2024-04-30T01:55:39.772Z,15.21
2024-04-30T01:58:07.355Z,15.22
2024-04-30T02:00:35.190Z,15.22
2024-04-30T02:03:02.973Z,15.22
2024-04-30T02:05:30.613Z,15.21
2024-04-30T02:07:59.594Z,15.19
2024-04-30T02:10:27.351Z,15.17
2024-04-30T02:12:55.023Z,15.14
2024-04-30T02:15:23.014Z,15.11
2024-04-30T02:17:50.739Z,15.09
2024-04-30T02:20:18.386Z,15.08
2024-04-30T02:22:45.914Z,15.07
2024-04-30T02:25:13.503Z,15.05
2024-04-30T02:27:41.944Z,15.04
2024-04-30T02:30:17.771Z,15.03
2024-04-30T02:33:04.484Z,15.02
2024-04-30T02:35:32.397Z,14.98
2024-04-30T02:37:59.967Z,14.96
2024-04-30T02:40:27.498Z,14.96
2024-04-30T02:42:55.223Z,14.95
2024-04-30T02:45:23.145Z,14.92
2024-04-30T02:47:50.707Z,14.91
2024-04-30T02:50:18.280Z,14.91
2024-04-30T02:52:45.848Z,14.92
2024-04-30T02:55:13.619Z,14.91
2024-04-30T02:57:41.163Z,14.90
2024-04-30T03:00:09.042Z,14.89
2024-04-30T03:02:36.702Z,14.89
2024-04-30T03:05:04.751Z,14.89
2024-04-30T03:07:32.437Z,14.84
2024-04-30T03:10:00.747Z,14.83
2024-04-30T03:12:28.485Z,14.82
2024-04-30T03:14:56.041Z,14.80
2024-04-30T03:17:23.667Z,14.79
2024-04-30T03:19:51.515Z,14.79
2024-04-30T03:22:19.376Z,14.78
2024-04-30T03:24:46.960Z,14.78
2024-04-30T03:27:14.548Z,14.78
2024-04-30T03:29:42.504Z,14.77
2024-04-30T03:32:09.959Z,14.77
2024-04-30T03:34:38.600Z,14.76
2024-04-30T03:37:06.379Z,14.72
2024-04-30T03:39:33.906Z,14.70
2024-04-30T03:42:01.658Z,14.70
2024-04-30T03:44:29.171Z,14.69
2024-04-30T03:46:56.853Z,14.69
2024-04-30T03:49:24.435Z,14.71
2024-04-30T03:51:52.168Z,14.68
2024-04-30T03:54:19.756Z,14.69
2024-04-30T03:56:47.304Z,14.67
2024-04-30T03:59:17.170Z,14.68
2024-04-30T04:01:44.713Z,14.70
2024-04-30T04:04:12.352Z,14.73
2024-04-30T04:06:40.013Z,14.78
2024-04-30T04:09:07.655Z,14.85
2024-04-30T04:11:54.331Z,14.93
2024-04-30T04:14:41.663Z,14.98
2024-04-30T04:17:10.597Z,15.04
2024-04-30T04:19:38.918Z,15.06
2024-04-30T04:22:07.043Z,15.08
2024-04-30T04:24:34.899Z,15.13
2024-04-30T04:27:02.814Z,15.15
2024-04-30T04:29:30.773Z,15.16
2024-04-30T04:32:00.988Z,15.19
2024-04-30T04:34:29.080Z,15.21
2024-04-30T04:36:56.723Z,15.25
2024-04-30T04:39:24.383Z,15.28
2024-04-30T04:41:52.056Z,15.31
2024-04-30T04:44:19.611Z,15.35
2024-04-30T04:46:47.237Z,15.37
2024-04-30T04:49:14.734Z,15.41
2024-04-30T04:51:42.344Z,15.44
2024-04-30T04:54:09.936Z,15.48
2024-04-30T04:56:37.637Z,15.56
2024-04-30T04:59:05.252Z,15.61
2024-04-30T05:01:32.944Z,15.66
2024-04-30T05:04:01.079Z,15.71
2024-04-30T05:06:28.862Z,15.75
2024-04-30T05:08:56.396Z,15.78
2024-04-30T05:11:24.387Z,15.86
2024-04-30T05:13:52.353Z,15.93
2024-04-30T05:16:20.068Z,15.98
2024-04-30T05:18:47.682Z,16.02
2024-04-30T05:21:15.217Z,16.05
2024-04-30T05:23:42.788Z,16.08
2024-04-30T05:26:10.352Z,16.15
2024-04-30T05:28:38.649Z,16.17
2024-04-30T05:31:06.472Z,16.21
2024-04-30T05:33:34.232Z,16.29
2024-04-30T05:36:02.186Z,16.37
2024-04-30T05:38:29.833Z,16.44
2024-04-30T05:40:57.420Z,16.52
2024-04-30T05:43:25.171Z,16.56
2024-04-30T05:45:52.879Z,16.65
2024-04-30T05:48:20.429Z,16.74
2024-04-30T05:50:48.088Z,16.83
2024-04-30T05:53:15.911Z,16.90
2024-04-30T05:55:43.663Z,17.00
2024-04-30T05:58:13.656Z,17.04
2024-04-30T06:00:41.440Z,17.09
2024-04-30T06:03:09.193Z,17.17
2024-04-30T06:05:36.993Z,17.27
2024-04-30T06:08:04.925Z,17.34
2024-04-30T06:10:32.506Z,17.45
2024-04-30T06:13:00.082Z,17.55
2024-04-30T06:15:28.020Z,17.64
2024-04-30T06:17:57.166Z,17.75
2024-04-30T06:20:24.965Z,17.88
2024-04-30T06:22:52.744Z,17.97
2024-04-30T06:25:20.359Z,18.02
2024-04-30T06:27:48.867Z,18.08
2024-04-30T06:30:16.471Z,18.18
2024-04-30T06:32:44.212Z,18.33
2024-04-30T06:35:11.996Z,18.46
2024-04-30T06:37:39.684Z,18.56
2024-04-30T06:40:07.765Z,18.65
2024-04-30T06:42:35.370Z,18.80
2024-04-30T06:45:03.281Z,19.00
2024-04-30T06:47:31.054Z,19.18
2024-04-30T06:49:58.939Z,19.37
2024-04-30T06:52:26.666Z,19.51
2024-04-30T06:54:54.384Z,19.68
2024-04-30T06:57:22.030Z,19.83
2024-04-30T06:59:49.786Z,20.01
2024-04-30T07:02:20.273Z,20.18
2024-04-30T07:04:47.958Z,20.34
2024-04-30T07:07:15.716Z,20.50
2024-04-30T07:09:43.302Z,20.58
2024-04-30T07:12:12.510Z,20.63
2024-04-30T07:14:40.574Z,20.74
2024-04-30T07:17:09.305Z,20.84
2024-04-30T07:19:37.606Z,20.97
2024-04-30T07:22:05.598Z,21.10
2024-04-30T07:24:33.199Z,21.20
2024-04-30T07:27:00.789Z,21.34
2024-04-30T07:30:19.611Z,21.45
2024-04-30T07:33:06.180Z,21.61
2024-04-30T07:35:33.968Z,21.72
2024-04-30T07:38:01.626Z,21.86
2024-04-30T07:40:29.358Z,22.00
2024-04-30T07:42:56.989Z,22.10
2024-04-30T07:45:24.647Z,22.24
2024-04-30T07:47:52.334Z,22.40
2024-04-30T07:50:20.279Z,22.55
2024-04-30T07:52:47.885Z,22.74
2024-04-30T07:55:15.452Z,22.92
2024-04-30T07:57:43.144Z,23.10
2024-04-30T08:00:12.006Z,23.27
2024-04-30T08:02:39.769Z,23.44
2024-04-30T08:05:07.401Z,23.59
2024-04-30T08:07:34.999Z,23.72
2024-04-30T08:10:04.678Z,23.88
2024-04-30T08:12:32.530Z,24.02
2024-04-30T08:15:01.092Z,24.18
2024-04-30T08:17:30.214Z,24.35
2024-04-30T08:19:57.777Z,24.51
2024-04-30T08:22:26.044Z,24.62
2024-04-30T08:24:53.550Z,24.77
2024-04-30T08:27:23.783Z,24.96
2024-04-30T08:29:53.092Z,25.17
2024-04-30T08:32:21.208Z,25.33
2024-04-30T08:34:48.685Z,25.42
2024-04-30T08:37:16.244Z,25.50
2024-04-30T08:39:43.777Z,25.57
2024-04-30T08:42:11.355Z,25.73
2024-04-30T08:44:38.940Z,25.87
2024-04-30T08:47:06.598Z,25.96
2024-04-30T08:49:42.865Z,26.15
2024-04-30T08:52:16.221Z,26.27
2024-04-30T08:54:43.930Z,26.33
2024-04-30T08:57:11.720Z,26.41
2024-04-30T08:59:39.259Z,26.49
2024-04-30T09:02:06.993Z,26.57
2024-04-30T09:04:34.674Z,26.66
2024-04-30T09:07:02.492Z,26.71
2024-04-30T09:09:30.035Z,26.76
2024-04-30T09:11:58.377Z,26.76
2024-04-30T09:14:25.974Z,26.81
2024-04-30T09:16:53.956Z,26.88
2024-04-30T09:19:25.658Z,27.00
2024-04-30T09:22:02.589Z,27.15
2024-04-30T09:24:30.273Z,27.31
2024-04-30T09:26:58.095Z,27.40
2024-04-30T09:29:35.162Z,27.42
2024-04-30T09:32:03.063Z,27.35
2024-04-30T09:34:40.379Z,27.30
2024-04-30T09:37:18.635Z,27.38
2024-04-30T09:39:50.054Z,27.49
2024-04-30T09:42:17.774Z,27.62
2024-04-30T09:44:45.355Z,27.78
2024-04-30T09:47:14.234Z,27.92
2024-04-30T09:49:42.167Z,28.06
2024-04-30T09:52:09.934Z,28.15
2024-04-30T09:54:37.912Z,28.25
2024-04-30T09:57:06.918Z,28.40
2024-04-30T09:59:34.699Z,28.49
2024-04-30T10:02:04.284Z,28.45
2024-04-30T10:04:31.921Z,28.57
2024-04-30T10:06:59.539Z,28.76
2024-04-30T10:09:27.152Z,28.86
2024-04-30T10:11:54.640Z,28.84
2024-04-30T10:14:29.017Z,28.86
2024-04-30T10:17:00.310Z,29.03
2024-04-30T10:19:29.095Z,29.22
2024-04-30T10:21:56.754Z,29.42
2024-04-30T10:24:24.446Z,29.60
2024-04-30T10:26:52.314Z,29.66
2024-04-30T10:29:20.133Z,29.61
2024-04-30T10:31:48.835Z,29.72
2024-04-30T10:34:17.187Z,29.91
2024-04-30T10:36:48.889Z,30.10
2024-04-30T10:39:28.471Z,30.32
2024-04-30T10:41:56.155Z,30.52
2024-04-30T10:44:23.843Z,30.63
2024-04-30T10:46:51.461Z,30.77
2024-04-30T10:49:21.479Z,30.94
2024-04-30T10:51:50.767Z,30.99
2024-04-30T10:54:18.355Z,31.08
2024-04-30T10:56:46.017Z,31.07
2024-04-30T10:59:13.643Z,30.97
2024-04-30T11:01:41.535Z,30.95
2024-04-30T11:04:10.124Z,30.96
2024-04-30T11:06:38.855Z,31.07
2024-04-30T11:09:07.500Z,31.29
2024-04-30T11:11:47.740Z,31.42
2024-04-30T11:14:15.949Z,31.61
2024-04-30T11:16:47.714Z,31.72
2024-04-30T11:19:15.907Z,31.72
2024-04-30T11:21:44.636Z,31.59
2024-04-30T11:24:12.334Z,31.46
2024-04-30T11:26:39.979Z,31.65
2024-04-30T11:29:22.937Z,31.90
2024-04-30T11:31:55.457Z,32.12
2024-04-30T11:34:23.222Z,32.22
2024-04-30T11:36:51.519Z,32.26
2024-04-30T11:39:19.198Z,32.26
2024-04-30T11:41:52.245Z,32.34
2024-04-30T11:44:28.752Z,32.21
2024-04-30T11:46:56.408Z,32.13
2024-04-30T11:49:24.104Z,32.06
2024-04-30T11:51:51.832Z,32.05
2024-04-30T11:54:19.446Z,32.06
2024-04-30T11:56:47.026Z,32.11
2024-04-30T11:59:14.752Z,32.09
2024-04-30T12:01:42.360Z,32.19
2024-04-30T12:04:09.969Z,32.27
2024-04-30T12:06:38.944Z,32.26
2024-04-30T12:09:07.031Z,32.29
2024-04-30T12:11:40.795Z,32.36
2024-04-30T12:14:08.428Z,32.46
2024-04-30T12:16:36.043Z,32.54
2024-04-30T12:19:04.980Z,32.54
2024-04-30T12:21:32.754Z,32.56
2024-04-30T12:24:00.611Z,32.41
2024-04-30T12:26:28.382Z,32.36
2024-04-30T12:28:55.920Z,32.39
2024-04-30T12:31:23.532Z,32.29
2024-04-30T12:33:51.185Z,32.29
2024-04-30T12:36:18.953Z,32.18
2024-04-30T12:38:46.541Z,32.26
2024-04-30T12:41:14.187Z,32.41
2024-04-30T12:43:41.801Z,32.52
2024-04-30T12:46:09.572Z,32.71
2024-04-30T12:48:37.293Z,32.93
2024-04-30T12:51:05.259Z,32.99
2024-04-30T12:53:33.022Z,32.98
2024-04-30T12:56:03.336Z,33.23
2024-04-30T12:58:31.021Z,33.15
2024-04-30T13:00:58.625Z,33.07
2024-04-30T13:03:26.442Z,33.03
2024-04-30T13:05:54.209Z,33.02
2024-04-30T13:08:22.273Z,33.13
2024-04-30T13:10:50.345Z,33.06
2024-04-30T13:13:18.363Z,33.03
2024-04-30T13:15:46.094Z,33.27
2024-04-30T13:18:13.590Z,33.49
2024-04-30T13:20:41.335Z,33.58
2024-04-30T13:23:08.990Z,33.70
2024-04-30T13:25:38.179Z,33.94
2024-04-30T13:28:06.278Z,34.19
2024-04-30T13:30:34.257Z,34.26
2024-04-30T13:33:03.193Z,34.22
2024-04-30T13:35:30.994Z,34.13
2024-04-30T13:37:58.528Z,34.18
2024-04-30T13:40:26.267Z,34.32
2024-04-30T13:42:53.912Z,34.31
2024-04-30T13:45:21.590Z,34.20
2024-04-30T13:47:49.417Z,34.30
2024-04-30T13:50:17.059Z,34.55
2024-04-30T13:52:44.735Z,34.79
2024-04-30T13:55:12.464Z,35.00
2024-04-30T13:57:41.124Z,35.14
2024-04-30T14:00:11.877Z,35.31
2024-04-30T14:02:42.472Z,35.36
2024-04-30T14:05:10.142Z,35.74
2024-04-30T14:07:37.923Z,36.14
2024-04-30T14:10:05.792Z,36.28
2024-04-30T14:12:33.491Z,36.35
2024-04-30T14:15:01.561Z,36.62
2024-04-30T14:17:29.170Z,36.88
2024-04-30T14:19:56.869Z,37.17
2024-04-30T14:22:24.900Z,37.54
2024-04-30T14:24:52.711Z,37.68
2024-04-30T14:27:20.983Z,37.71
2024-04-30T14:29:48.546Z,37.93
2024-04-30T14:32:16.227Z,38.05
2024-04-30T14:34:43.962Z,38.20
2024-04-30T14:37:11.611Z,38.57
2024-04-30T14:39:39.343Z,38.75
2024-04-30T14:42:07.117Z,38.58
2024-04-30T14:44:36.109Z,38.34
2024-04-30T14:47:03.781Z,38.57
2024-04-30T14:49:31.455Z,38.94
2024-04-30T14:51:59.078Z,39.14
2024-04-30T14:54:26.637Z,39.20
2024-04-30T14:56:55.544Z,39.20
2024-04-30T14:59:23.657Z,39.24
2024-04-30T15:01:51.438Z,39.35
2024-04-30T15:04:19.304Z,39.49
2024-04-30T15:06:47.146Z,39.59
2024-04-30T15:09:15.097Z,39.83
2024-04-30T15:11:42.768Z,40.13
2024-04-30T15:14:10.403Z,40.12
2024-04-30T15:16:43.204Z,40.25
2024-04-30T15:19:11.433Z,40.31
2024-04-30T15:21:42.499Z,40.41
2024-04-30T15:24:10.030Z,40.45
2024-04-30T15:26:38.646Z,39.80
2024-04-30T15:29:06.707Z,39.95
2024-04-30T15:31:34.452Z,40.35
2024-04-30T15:34:02.244Z,40.76
2024-04-30T15:36:29.881Z,41.25
2024-04-30T15:38:57.671Z,41.82
2024-04-30T15:41:25.256Z,42.10
2024-04-30T15:43:53.241Z,42.46
2024-04-30T15:46:20.922Z,42.69
2024-04-30T15:48:50.830Z,42.66
2024-04-30T15:51:19.414Z,42.65
2024-04-30T15:53:47.138Z,42.64
2024-04-30T15:56:19.460Z,42.80
2024-04-30T15:58:48.094Z,42.68
2024-04-30T16:01:16.025Z,42.53
2024-04-30T16:03:44.481Z,42.42
2024-04-30T16:06:12.217Z,42.48
2024-04-30T16:08:39.847Z,42.29
2024-04-30T16:11:10.443Z,42.12
2024-04-30T16:13:41.095Z,41.72
2024-04-30T16:16:16.221Z,41.56
2024-04-30T16:18:47.490Z,41.68
2024-04-30T16:21:16.465Z,41.75
2024-04-30T16:23:44.369Z,41.79
2024-04-30T16:26:12.158Z,41.74
2024-04-30T16:28:43.538Z,41.67
2024-04-30T16:31:14.714Z,41.71
2024-04-30T16:33:42.959Z,41.42
2024-04-30T16:36:16.955Z,40.84
2024-04-30T16:38:45.083Z,40.29
2024-04-30T16:41:16.084Z,39.88
2024-04-30T16:43:43.967Z,39.62
2024-04-30T16:46:11.630Z,39.36
2024-04-30T16:48:39.764Z,39.06
2024-04-30T16:51:11.874Z,39.03
2024-04-30T16:53:39.968Z,39.18
2024-04-30T16:56:07.608Z,39.35
2024-04-30T16:58:35.276Z,39.46
2024-04-30T17:01:03.585Z,39.26
2024-04-30T17:03:31.655Z,38.84
2024-04-30T17:05:59.720Z,38.58
2024-04-30T17:08:28.341Z,37.94
2024-04-30T17:10:56.070Z,37.40
2024-04-30T17:13:24.127Z,36.85
2024-04-30T17:15:51.757Z,35.72
2024-04-30T17:18:20.429Z,34.54
2024-04-30T17:20:47.974Z,33.51
2024-04-30T17:23:18.126Z,32.64
2024-04-30T17:25:45.795Z,31.88
2024-04-30T17:28:17.312Z,31.14
2024-04-30T17:30:45.029Z,30.55
2024-04-30T17:33:13.269Z,30.06
2024-04-30T17:35:40.832Z,29.66
2024-04-30T17:38:09.654Z,29.32
2024-04-30T17:40:37.285Z,29.02
2024-04-30T17:43:07.978Z,28.71
2024-04-30T17:45:35.639Z,28.39
2024-04-30T17:48:03.630Z,28.11
2024-04-30T17:50:31.447Z,27.87
2024-04-30T17:52:59.132Z,27.60
2024-04-30T17:55:26.787Z,27.35
2024-04-30T17:57:54.489Z,27.09
2024-04-30T18:00:23.594Z,26.84
2024-04-30T18:02:52.600Z,26.62
2024-04-30T18:05:20.239Z,26.37
2024-04-30T18:07:47.939Z,26.13
2024-04-30T18:10:18.146Z,25.93
2024-04-30T18:12:48.017Z,25.75
2024-04-30T18:15:16.220Z,25.58
2024-04-30T18:17:43.963Z,25.42
2024-04-30T18:20:11.606Z,25.26
2024-04-30T18:22:41.531Z,25.10
2024-04-30T18:25:09.331Z,24.93
2024-04-30T18:27:36.927Z,24.76
2024-04-30T18:30:05.061Z,24.60
2024-04-30T18:32:32.747Z,24.44
2024-04-30T18:35:01.411Z,24.28
2024-04-30T18:37:29.056Z,24.13
2024-04-30T18:39:56.780Z,23.99
2024-04-30T18:42:24.858Z,23.87
2024-04-30T18:44:52.577Z,23.73
2024-04-30T18:47:20.158Z,23.60
2024-04-30T18:49:47.932Z,23.45
2024-04-30T18:52:15.689Z,23.32
2024-04-30T18:54:43.495Z,23.21
2024-04-30T18:57:11.337Z,23.09
2024-04-30T18:59:38.944Z,22.98
2024-04-30T19:02:06.688Z,22.87
2024-04-30T19:04:34.529Z,22.77
2024-04-30T19:07:02.348Z,22.65
2024-04-30T19:09:29.952Z,22.46
2024-04-30T19:11:59.318Z,22.33
2024-04-30T19:14:40.814Z,22.23
2024-04-30T19:17:08.377Z,22.12
2024-04-30T19:19:36.041Z,22.04
2024-04-30T19:22:03.685Z,21.98
2024-04-30T19:24:31.303Z,21.89
2024-04-30T19:26:58.899Z,21.82
2024-04-30T19:29:30.035Z,21.74
2024-04-30T19:31:57.781Z,21.64
2024-04-30T19:34:25.614Z,21.54
2024-04-30T19:36:54.083Z,21.48
2024-04-30T19:39:21.710Z,21.42
2024-04-30T19:41:49.180Z,21.37
2024-04-30T19:44:16.768Z,21.32
2024-04-30T19:46:44.689Z,21.28
2024-04-30T19:49:12.798Z,21.23
2024-04-30T19:51:40.506Z,21.16
2024-04-30T19:54:08.283Z,21.08
2024-04-30T19:56:35.770Z,21.01
2024-04-30T19:59:03.478Z,20.94
2024-04-30T20:01:31.307Z,20.86
2024-04-30T20:04:00.429Z,20.80
2024-04-30T20:06:28.531Z,20.72
2024-04-30T20:08:57.379Z,20.66
2024-04-30T20:11:30.188Z,20.60
2024-04-30T20:13:57.878Z,20.55
2024-04-30T20:16:26.760Z,20.50
2024-04-30T20:18:54.549Z,20.43
2024-04-30T20:21:22.428Z,20.37
2024-04-30T20:23:50.023Z,20.32
2024-04-30T20:26:17.536Z,20.24
2024-04-30T20:28:45.183Z,20.16
2024-04-30T20:31:12.819Z,20.09
2024-04-30T20:33:40.862Z,20.00
2024-04-30T20:36:18.086Z,19.91
2024-04-30T20:38:46.149Z,19.83
2024-04-30T20:41:14.112Z,19.77
2024-04-30T20:43:42.054Z,19.75
2024-04-30T20:46:09.557Z,19.71
2024-04-30T20:48:37.440Z,19.69
2024-04-30T20:51:05.386Z,19.67
2024-04-30T20:53:32.947Z,19.61
2024-04-30T20:56:00.501Z,19.58
2024-04-30T20:58:28.098Z,19.55
2024-04-30T21:00:55.747Z,19.52
2024-04-30T21:03:23.652Z,19.51
2024-04-30T21:05:51.702Z,19.49
2024-04-30T21:08:23.762Z,19.45
2024-04-30T21:10:51.741Z,19.43
2024-04-30T21:13:19.526Z,19.40
2024-04-30T21:15:47.211Z,19.37
2024-04-30T21:18:15.039Z,19.34
2024-04-30T21:20:42.692Z,19.33
2024-04-30T21:23:10.329Z,19.33
2024-04-30T21:25:37.895Z,19.33
2024-04-30T21:28:05.941Z,19.32
2024-04-30T21:30:33.728Z,19.29
2024-04-30T21:33:03.371Z,19.27
2024-04-30T21:35:31.416Z,19.24
2024-04-30T21:37:58.957Z,19.19
2024-04-30T21:40:26.908Z,19.16
2024-04-30T21:42:54.654Z,19.11
2024-04-30T21:45:22.390Z,19.05
2024-04-30T21:47:50.190Z,19.01
2024-04-30T21:50:17.903Z,18.96
2024-04-30T21:52:45.888Z,18.91
2024-04-30T21:55:13.707Z,18.87
2024-04-30T21:57:41.567Z,18.82
2024-04-30T22:00:13.676Z,18.77
2024-04-30T22:02:41.401Z,18.71
2024-04-30T22:05:09.009Z,18.67
2024-04-30T22:07:36.685Z,18.64
2024-04-30T22:10:04.852Z,18.59
2024-04-30T22:12:32.938Z,18.51
2024-04-30T22:15:00.766Z,18.37
2024-04-30T22:17:28.445Z,18.26
2024-04-30T22:19:56.213Z,18.19
2024-04-30T22:22:24.111Z,18.08
2024-04-30T22:24:51.653Z,17.94
2024-04-30T22:27:19.222Z,17.81
2024-04-30T22:29:48.545Z,17.71
2024-04-30T22:32:17.924Z,17.64
2024-04-30T22:34:45.536Z,17.60
2024-04-30T22:37:13.086Z,17.60
2024-04-30T22:39:40.743Z,17.62
2024-04-30T22:42:08.869Z,17.66
2024-04-30T22:44:36.805Z,17.68
2024-04-30T22:47:04.788Z,17.68
2024-04-30T22:49:32.427Z,17.69
2024-04-30T22:52:00.132Z,17.70
2024-04-30T22:54:27.830Z,17.73
2024-04-30T22:56:55.439Z,17.74
2024-04-30T22:59:23.367Z,17.73
2024-04-30T23:01:51.521Z,17.73
2024-04-30T23:04:19.499Z,17.72
2024-04-30T23:06:47.208Z,17.71
2024-04-30T23:09:15.276Z,17.67
2024-04-30T23:11:43.677Z,17.67
2024-04-30T23:14:11.770Z,17.64
2024-04-30T23:16:39.380Z,17.62
2024-04-30T23:19:07.096Z,17.61
2024-04-30T23:21:38.408Z,17.60
2024-04-30T23:24:06.106Z,17.58
2024-04-30T23:26:33.777Z,17.54
2024-04-30T23:29:01.635Z,17.50
2024-04-30T23:31:29.251Z,17.46
2024-04-30T23:33:56.795Z,17.45
2024-04-30T23:36:25.166Z,17.42
2024-04-30T23:38:52.731Z,17.39
2024-04-30T23:41:20.475Z,17.37
2024-04-30T23:43:48.192Z,17.35
2024-04-30T23:46:15.690Z,17.33
2024-04-30T23:48:43.366Z,17.29
2024-04-30T23:51:14.083Z,17.26
2024-04-30T23:53:42.219Z,17.21
2024-04-30T23:56:10.022Z,17.16
2024-04-30T23:58:38.326Z,17.12
